Time;durP1;ratioP1;P1;durP2;ratioP2;P2;SDS_P1;SDS_P2;PMS_P1;PMS_P2;Temp;Humidity;BMP_temperature;BMP_pressure;BME280_temperature;BME280_humidity;BME280_pressure;Samples;Min_cycle;Max_cycle;Signal;HPM_P1;HPM_P2
2021/03/31 00:04:01;;;;;;;12.68;9.50;;;;;;;;;;10000243;29;20075;-63
2021/03/31 00:08:58;;;;;;;12.98;11.32;;;;;;;;;;9999392;29;20309;-63
2021/03/31 00:13:56;;;;;;;11.95;9.45;;;;;;;;;;10009964;29;20090;-63
2021/03/31 00:18:54;;;;;;;11.95;9.48;;;;;;;;;;10002869;29;20080;-63
2021/03/31 00:23:52;;;;;;;10.50;9.48;;;;;;;;;;10010068;29;20437;-63
2021/03/31 00:28:49;;;;;;;12.93;10.10;;;;;;;;;;10037105;29;20056;-63
2021/03/31 00:33:47;;;;;;;9.90;8.90;;;;;;;;;;10037603;29;20079;-63
2021/03/31 00:38:45;;;;;;;12.07;9.73;;;;;;;;;;10012516;29;20090;-63
2021/03/31 00:43:42;;;;;;;11.77;9.65;;;;;;;;;;9998795;29;20083;-63
2021/03/31 00:48:39;;;;;;;11.88;9.35;;;;;;;;;;10000736;29;20087;-63
2021/03/31 00:53:39;;;;;;;10.25;8.55;;;;;;;;;;10004925;29;20094;-63
2021/03/31 00:58:37;;;;;;;25.00;19.65;;;;;;;;;;10005061;29;20052;-63
2021/03/31 01:03:35;;;;;;;13.30;11.63;;;;;;;;;;10002533;29;20080;-63
2021/03/31 01:08:32;;;;;;;13.35;10.20;;;;;;;;;;10002305;29;20131;-63
2021/03/31 01:13:46;;;;;;;15.82;11.40;;;;;;;;;;10001780;29;20333;-64
2021/03/31 01:18:48;;;;;;;20.40;17.00;;;;;;;;;;10004987;29;20108;-64
2021/03/31 01:24:04;;;;;;;22.30;17.17;;;;;;;;;;10005466;29;20080;-64
2021/03/31 01:29:10;;;;;;;19.00;12.40;;;;;;;;;;10004823;29;20056;-64
2021/03/31 01:34:29;;;;;;;18.13;14.18;;;;;;;;;;10005024;29;20095;-64
2021/03/31 01:39:26;;;;;;;18.92;15.30;;;;;;;;;;10005719;29;20106;-64
2021/03/31 01:44:25;;;;;;;16.33;12.95;;;;;;;;;;10005408;29;20083;-64
2021/03/31 01:49:24;;;;;;;12.73;11.30;;;;;;;;;;10004848;29;20044;-64
2021/03/31 01:54:22;;;;;;;13.70;11.65;;;;;;;;;;10004816;29;20083;-64
2021/03/31 01:59:21;;;;;;;13.02;11.07;;;;;;;;;;10004089;29;20577;-64
2021/03/31 02:04:19;;;;;;;78.63;41.35;;;;;;;;;;10002780;29;20395;-64
2021/03/31 02:09:16;;;;;;;56.22;35.97;;;;;;;;;;10002303;29;20052;-64
2021/03/31 02:14:15;;;;;;;27.90;21.70;;;;;;;;;;10002744;29;20417;-64
2021/03/31 02:19:13;;;;;;;21.67;16.25;;;;;;;;;;10003879;29;20049;-64
2021/03/31 02:24:13;;;;;;;18.00;14.95;;;;;;;;;;10003567;29;20532;-64
2021/03/31 02:29:10;;;;;;;17.92;14.23;;;;;;;;;;10002525;29;20513;-63
2021/03/31 02:34:09;;;;;;;25.70;17.98;;;;;;;;;;10002878;29;20083;-63
2021/03/31 02:39:09;;;;;;;73.35;42.00;;;;;;;;;;10002579;29;20072;-63
2021/03/31 02:44:08;;;;;;;131.23;61.50;;;;;;;;;;10002800;29;20059;-64
2021/03/31 02:49:07;;;;;;;108.45;50.22;;;;;;;;;;10002707;29;20533;-63
2021/03/31 02:54:06;;;;;;;86.40;39.70;;;;;;;;;;10002139;29;20083;-63
2021/03/31 02:59:04;;;;;;;82.43;42.70;;;;;;;;;;10002434;29;20083;-64
2021/03/31 03:04:01;;;;;;;69.80;35.58;;;;;;;;;;10001923;29;20071;-63
2021/03/31 03:09:02;;;;;;;55.30;31.60;;;;;;;;;;10001658;29;20075;-63
2021/03/31 03:14:01;;;;;;;45.53;28.83;;;;;;;;;;10001570;29;20084;-64
2021/03/31 03:18:58;;;;;;;55.92;32.92;;;;;;;;;;10001689;29;20082;-63
2021/03/31 03:23:56;;;;;;;63.00;39.13;;;;;;;;;;10001562;29;20083;-64
2021/03/31 03:28:54;;;;;;;44.92;27.13;;;;;;;;;;10000796;29;20067;-65
2021/03/31 03:33:52;;;;;;;36.53;25.63;;;;;;;;;;10000931;29;20095;-63
2021/03/31 03:38:50;;;;;;;37.05;24.15;;;;;;;;;;10004953;29;20051;-64
2021/03/31 03:43:47;;;;;;;38.00;26.85;;;;;;;;;;10010119;29;20082;-64
2021/03/31 03:48:44;;;;;;;25.27;20.10;;;;;;;;;;9995508;29;20533;-63
2021/03/31 03:53:43;;;;;;;27.67;21.10;;;;;;;;;;10008910;29;20080;-63
2021/03/31 03:58:40;;;;;;;25.60;20.70;;;;;;;;;;9999655;29;20055;-63
2021/03/31 04:03:38;;;;;;;30.55;23.10;;;;;;;;;;10000487;29;20544;-64
2021/03/31 04:08:36;;;;;;;46.00;33.40;;;;;;;;;;10015642;29;20556;-64
2021/03/31 04:13:35;;;;;;;55.75;41.17;;;;;;;;;;9999871;29;20509;-63
2021/03/31 04:18:34;;;;;;;77.70;47.58;;;;;;;;;;9999457;29;20048;-64
2021/03/31 04:23:33;;;;;;;44.97;32.17;;;;;;;;;;9999549;29;20079;-63
2021/03/31 04:28:30;;;;;;;99.68;66.50;;;;;;;;;;9998792;29;20091;-62
2021/03/31 04:33:28;;;;;;;105.55;67.35;;;;;;;;;;9999933;29;20076;-62
2021/03/31 04:38:26;;;;;;;90.30;62.03;;;;;;;;;;9999403;29;20466;-63
2021/03/31 04:43:24;;;;;;;67.90;48.90;;;;;;;;;;9999201;29;20055;-63
2021/03/31 04:48:21;;;;;;;79.70;54.17;;;;;;;;;;9998921;29;20087;-62
2021/03/31 04:53:20;;;;;;;98.47;58.65;;;;;;;;;;9998493;29;20095;-63
2021/03/31 04:58:18;;;;;;;89.55;53.35;;;;;;;;;;9999167;29;20053;-63
2021/03/31 05:03:15;;;;;;;101.55;55.88;;;;;;;;;;9998326;29;20063;-65
2021/03/31 05:08:13;;;;;;;113.10;58.83;;;;;;;;;;9998649;29;20076;-63
2021/03/31 05:13:11;;;;;;;57.70;34.30;;;;;;;;;;9997790;29;20118;-63
2021/03/31 05:18:08;;;;;;;94.22;64.55;;;;;;;;;;9998415;29;20079;-64
2021/03/31 05:23:05;;;;;;;92.20;61.45;;;;;;;;;;9998080;29;20075;-63
2021/03/31 05:28:03;;;;;;;101.22;58.92;;;;;;;;;;9998037;29;20095;-63
2021/03/31 05:33:01;;;;;;;94.50;61.53;;;;;;;;;;9998876;29;20090;-63
2021/03/31 05:37:58;;;;;;;86.75;54.38;;;;;;;;;;10004820;29;20083;-61
2021/03/31 05:42:56;;;;;;;102.68;59.38;;;;;;;;;;10032615;29;20073;-63
2021/03/31 05:47:54;;;;;;;94.18;63.17;;;;;;;;;;10043545;29;20058;-61
2021/03/31 05:52:52;;;;;;;85.28;47.75;;;;;;;;;;10042862;29;20091;-62
2021/03/31 05:57:50;;;;;;;98.85;58.90;;;;;;;;;;10042788;29;20485;-62
2021/03/31 06:02:48;;;;;;;201.68;134.75;;;;;;;;;;10042931;29;20083;-61
2021/03/31 06:07:46;;;;;;;40.13;28.10;;;;;;;;;;10042740;29;20082;-62
2021/03/31 06:12:47;;;;;;;26.98;21.60;;;;;;;;;;10042712;29;20086;-62
2021/03/31 06:17:46;;;;;;;39.67;28.42;;;;;;;;;;10042678;29;20051;-62
2021/03/31 06:22:53;;;;;;;36.25;24.42;;;;;;;;;;10037437;29;20075;-61
2021/03/31 06:27:54;;;;;;;41.55;22.50;;;;;;;;;;10003310;29;20076;-61
2021/03/31 06:32:53;;;;;;;31.33;18.40;;;;;;;;;;10002672;29;20103;-61
2021/03/31 06:37:51;;;;;;;31.40;21.48;;;;;;;;;;10022660;29;20087;-62
2021/03/31 06:42:48;;;;;;;21.02;16.63;;;;;;;;;;10017455;29;20068;-61
2021/03/31 06:47:51;;;;;;;24.13;19.23;;;;;;;;;;10020731;29;20043;-62
2021/03/31 06:52:52;;;;;;;21.33;15.05;;;;;;;;;;10036071;29;20076;-61
2021/03/31 06:57:52;;;;;;;54.60;37.35;;;;;;;;;;10002512;29;20060;-61
2021/03/31 07:02:51;;;;;;;31.10;22.60;;;;;;;;;;10002234;29;20413;-63
2021/03/31 07:07:48;;;;;;;36.90;24.48;;;;;;;;;;10000381;29;20368;-63
2021/03/31 07:12:46;;;;;;;34.65;22.88;;;;;;;;;;10001483;29;20082;-64
2021/03/31 07:17:48;;;;;;;29.67;21.10;;;;;;;;;;10023452;29;20509;-62
2021/03/31 07:22:46;;;;;;;26.30;19.92;;;;;;;;;;10004024;29;20520;-60
2021/03/31 07:27:45;;;;;;;27.30;20.08;;;;;;;;;;10000300;29;20458;-61
2021/03/31 07:32:46;;;;;;;25.42;19.75;;;;;;;;;;10000954;29;20048;-60
2021/03/31 07:37:44;;;;;;;26.60;19.23;;;;;;;;;;10005133;29;20074;-61
2021/03/31 07:42:45;;;;;;;29.23;18.60;;;;;;;;;;10014018;29;20068;-62
2021/03/31 07:47:42;;;;;;;21.58;17.38;;;;;;;;;;10034348;29;20054;-62
2021/03/31 07:52:53;;;;;;;28.33;18.67;;;;;;;;;;10019537;29;20055;-61
2021/03/31 07:58:11;;;;;;;34.40;19.85;;;;;;;;;;9999645;29;20044;-61
2021/03/31 08:03:09;;;;;;;24.35;18.00;;;;;;;;;;10000354;29;20413;-62
2021/03/31 08:08:13;;;;;;;26.90;18.15;;;;;;;;;;10018254;29;20071;-63
2021/03/31 08:13:26;;;;;;;25.53;18.97;;;;;;;;;;10014994;29;20072;-62
2021/03/31 08:18:25;;;;;;;26.33;18.17;;;;;;;;;;9998425;29;20055;-62
2021/03/31 08:23:40;;;;;;;27.17;20.10;;;;;;;;;;9999311;29;20080;-62
2021/03/31 08:28:39;;;;;;;29.45;17.17;;;;;;;;;;9999177;29;20560;-62
2021/03/31 08:33:36;;;;;;;27.80;20.13;;;;;;;;;;10009146;29;20086;-62
2021/03/31 08:38:33;;;;;;;22.17;19.00;;;;;;;;;;9998887;29;20055;-61
2021/03/31 08:43:30;;;;;;;30.60;20.92;;;;;;;;;;9999186;29;20067;-62
2021/03/31 08:48:38;;;;;;;23.23;18.20;;;;;;;;;;9998618;29;20084;-61
2021/03/31 08:53:37;;;;;;;23.05;17.92;;;;;;;;;;10008406;29;20563;-61
2021/03/31 08:58:35;;;;;;;25.92;17.13;;;;;;;;;;10021705;29;20072;-62
2021/03/31 09:03:32;;;;;;;35.17;20.98;;;;;;;;;;9998812;29;20123;-64
2021/03/31 09:08:31;;;;;;;21.67;15.65;;;;;;;;;;10003704;29;20043;-62
2021/03/31 09:13:30;;;;;;;19.27;15.32;;;;;;;;;;10032141;29;20080;-62
2021/03/31 09:18:27;;;;;;;23.23;15.60;;;;;;;;;;10005718;29;20490;-64
2021/03/31 09:23:25;;;;;;;27.77;19.17;;;;;;;;;;10006202;29;20086;-60
2021/03/31 09:28:23;;;;;;;20.33;16.20;;;;;;;;;;10005355;29;20090;-61
2021/03/31 09:33:30;;;;;;;24.40;17.40;;;;;;;;;;10006973;29;20067;-60
2021/03/31 09:38:32;;;;;;;26.00;14.48;;;;;;;;;;10009558;29;20067;-61
2021/03/31 09:43:32;;;;;;;17.05;9.95;;;;;;;;;;10016846;29;20083;-61
2021/03/31 09:48:30;;;;;;;15.20;10.23;;;;;;;;;;10037111;29;20079;-61
2021/03/31 09:53:27;;;;;;;20.25;13.98;;;;;;;;;;10038925;29;20090;-63
2021/03/31 09:58:25;;;;;;;39.55;14.82;;;;;;;;;;10039909;29;20064;-63
2021/03/31 10:03:26;;;;;;;17.58;11.70;;;;;;;;;;10040083;29;20084;-60
2021/03/31 10:08:23;;;;;;;17.80;14.40;;;;;;;;;;10043573;29;20048;-61
2021/03/31 10:13:22;;;;;;;15.82;10.57;;;;;;;;;;10042613;29;20078;-63
2021/03/31 10:18:20;;;;;;;28.38;20.67;;;;;;;;;;10042130;28;20086;-60
2021/03/31 10:23:22;;;;;;;16.20;13.32;;;;;;;;;;10042735;29;20047;-59
2021/03/31 10:28:36;;;;;;;18.73;13.32;;;;;;;;;;10041915;29;20059;-61
2021/03/31 10:33:49;;;;;;;11.55;9.27;;;;;;;;;;10042181;29;20086;-63
2021/03/31 10:39:11;;;;;;;13.07;10.63;;;;;;;;;;10041895;29;20051;-61
2021/03/31 10:49:33;;;;;;;12.23;9.50;;;;;;;;;;10041322;29;20075;-61
2021/03/31 10:54:32;;;;;;;13.00;10.90;;;;;;;;;;10041847;29;20083;-62
2021/03/31 10:59:29;;;;;;;31.30;22.15;;;;;;;;;;10041140;29;20039;-61
2021/03/31 11:04:27;;;;;;;21.38;14.52;;;;;;;;;;10041251;29;20051;-61
2021/03/31 11:09:24;;;;;;;27.67;20.17;;;;;;;;;;10041256;29;20067;-60
2021/03/31 11:14:22;;;;;;;45.72;32.42;;;;;;;;;;10041065;29;20083;-60
2021/03/31 11:19:39;;;;;;;16.38;12.48;;;;;;;;;;10039075;29;20043;-61
2021/03/31 11:29:52;;;;;;;19.60;16.93;;;;;;;;;;10039881;29;20161;-62
2021/03/31 11:34:49;;;;;;;15.20;12.13;;;;;;;;;;10039585;29;20086;-61
2021/03/31 11:39:46;;;;;;;11.85;10.57;;;;;;;;;;10039745;29;20048;-62
2021/03/31 11:44:44;;;;;;;11.98;9.82;;;;;;;;;;10039634;29;20043;-61
2021/03/31 11:49:42;;;;;;;18.48;10.88;;;;;;;;;;10039516;29;20079;-63
2021/03/31 11:54:39;;;;;;;15.32;11.88;;;;;;;;;;10038681;29;20075;-63
2021/03/31 11:59:36;;;;;;;17.98;13.75;;;;;;;;;;10039327;29;20075;-63
2021/03/31 12:04:34;;;;;;;11.70;10.13;;;;;;;;;;10039333;29;20075;-64
2021/03/31 12:09:32;;;;;;;19.77;15.23;;;;;;;;;;10038012;29;20090;-63
2021/03/31 12:14:29;;;;;;;13.13;10.93;;;;;;;;;;10038535;29;20085;-63
2021/03/31 12:19:26;;;;;;;15.10;12.43;;;;;;;;;;10038171;29;20517;-64
2021/03/31 12:24:24;;;;;;;18.05;14.05;;;;;;;;;;10037838;29;20425;-61
2021/03/31 12:29:22;;;;;;;34.35;29.48;;;;;;;;;;10037829;29;20516;-61
2021/03/31 12:34:19;;;;;;;15.60;11.70;;;;;;;;;;10038022;29;20079;-61
2021/03/31 12:39:17;;;;;;;39.38;30.15;;;;;;;;;;10037770;29;20043;-60
2021/03/31 12:44:15;;;;;;;28.40;21.88;;;;;;;;;;10037713;29;20469;-60
2021/03/31 12:49:13;;;;;;;32.10;23.15;;;;;;;;;;10037440;29;20082;-60
2021/03/31 12:54:14;;;;;;;51.42;39.03;;;;;;;;;;10037046;29;20090;-60
2021/03/31 12:59:11;;;;;;;49.50;37.50;;;;;;;;;;10037928;29;20625;-61
2021/03/31 13:04:29;;;;;;;34.40;24.85;;;;;;;;;;10037650;29;20051;-62
2021/03/31 13:09:28;;;;;;;23.13;18.30;;;;;;;;;;10037228;29;20055;-60
2021/03/31 13:25:55;;;;;;;23.25;16.10;;;;;;;;;;10038069;29;20091;-62
2021/03/31 13:30:58;;;;;;;17.88;13.55;;;;;;;;;;10036712;29;20052;-60
2021/03/31 13:36:02;;;;;;;22.17;17.02;;;;;;;;;;10036986;29;20083;-63
2021/03/31 13:41:01;;;;;;;45.35;32.08;;;;;;;;;;10036817;29;20149;-62
2021/03/31 13:45:58;;;;;;;26.13;15.07;;;;;;;;;;10036682;29;20083;-61
2021/03/31 13:50:58;;;;;;;27.75;22.67;;;;;;;;;;10037212;29;20485;-61
2021/03/31 13:56:21;;;;;;;22.88;14.77;;;;;;;;;;10040784;29;20545;-60
2021/03/31 14:01:24;;;;;;;15.05;10.65;;;;;;;;;;10043419;29;20047;-64
2021/03/31 14:06:42;;;;;;;14.48;11.10;;;;;;;;;;10042797;29;20078;-64
2021/03/31 14:12:00;;;;;;;17.35;12.98;;;;;;;;;;10042644;29;20055;-63
2021/03/31 14:17:19;;;;;;;27.42;24.02;;;;;;;;;;10041116;29;20059;-64
2021/03/31 14:22:18;;;;;;;58.70;43.47;;;;;;;;;;10043355;29;20047;-63
2021/03/31 14:27:15;;;;;;;48.53;37.50;;;;;;;;;;10020088;29;20084;-62
2021/03/31 14:32:13;;;;;;;27.58;18.05;;;;;;;;;;10017381;29;20071;-64
2021/03/31 14:37:31;;;;;;;13.07;11.27;;;;;;;;;;10012486;29;20076;-62
2021/03/31 14:42:48;;;;;;;24.10;14.00;;;;;;;;;;10016528;29;20083;-64
2021/03/31 14:47:46;;;;;;;27.08;15.95;;;;;;;;;;10016996;29;20083;-64
2021/03/31 15:03:37;;;;;;;19.48;12.80;;;;;;;;;;10019291;29;20497;-63
2021/03/31 15:08:36;;;;;;;18.00;16.27;;;;;;;;;;10022333;29;20083;-63
2021/03/31 15:13:35;;;;;;;16.52;12.77;;;;;;;;;;10024077;29;20620;-63
2021/03/31 15:18:53;;;;;;;31.00;25.13;;;;;;;;;;10026507;29;20067;-63
2021/03/31 15:24:11;;;;;;;21.67;15.98;;;;;;;;;;10022795;29;20059;-62
2021/03/31 15:29:09;;;;;;;23.13;17.52;;;;;;;;;;10021773;29;20091;-63
2021/03/31 15:34:06;;;;;;;20.50;15.02;;;;;;;;;;10022709;29;20109;-63
2021/03/31 15:39:09;;;;;;;70.53;42.00;;;;;;;;;;10014077;29;20090;-62
2021/03/31 15:44:14;;;;;;;20.70;15.55;;;;;;;;;;10018416;29;20082;-64
2021/03/31 15:49:16;;;;;;;33.15;23.48;;;;;;;;;;10022414;29;20432;-62
2021/03/31 15:54:19;;;;;;;48.15;27.85;;;;;;;;;;10010492;29;20529;-63
2021/03/31 15:59:22;;;;;;;33.17;21.67;;;;;;;;;;10027724;29;20482;-63
2021/03/31 16:04:26;;;;;;;19.15;15.20;;;;;;;;;;10023879;29;20084;-64
2021/03/31 16:09:28;;;;;;;50.10;30.05;;;;;;;;;;10003487;29;20524;-63
2021/03/31 16:14:31;;;;;;;26.75;17.52;;;;;;;;;;10012183;29;20509;-64
2021/03/31 16:19:33;;;;;;;81.10;48.13;;;;;;;;;;10004378;29;20052;-63
2021/03/31 16:24:35;;;;;;;59.25;43.00;;;;;;;;;;9999815;29;20086;-63
2021/03/31 16:29:54;;;;;;;78.30;47.35;;;;;;;;;;9999332;29;20478;-64
2021/03/31 16:34:56;;;;;;;82.38;60.58;;;;;;;;;;10023131;29;20094;-63
2021/03/31 16:39:58;;;;;;;87.00;62.28;;;;;;;;;;9999575;29;20083;-64
2021/03/31 16:45:01;;;;;;;211.68;126.95;;;;;;;;;;10014345;29;20454;-65
2021/03/31 16:50:04;;;;;;;53.92;44.47;;;;;;;;;;10003676;29;20091;-63
2021/03/31 16:55:07;;;;;;;44.92;29.75;;;;;;;;;;10037710;29;20091;-63
2021/03/31 17:00:11;;;;;;;24.40;20.55;;;;;;;;;;10009091;29;20060;-63
2021/03/31 17:05:13;;;;;;;36.07;27.40;;;;;;;;;;9998997;29;20071;-66
2021/03/31 17:10:17;;;;;;;41.78;26.90;;;;;;;;;;9998464;29;20084;-63
2021/03/31 17:15:20;;;;;;;50.88;31.55;;;;;;;;;;10008577;29;20563;-63
2021/03/31 17:20:22;;;;;;;55.78;40.15;;;;;;;;;;10005533;29;20092;-63
2021/03/31 17:25:25;;;;;;;113.05;78.78;;;;;;;;;;10016075;29;20090;-63
2021/03/31 17:30:28;;;;;;;64.90;43.15;;;;;;;;;;10001460;29;20106;-64
2021/03/31 17:35:30;;;;;;;64.60;43.63;;;;;;;;;;10017215;29;20083;-64
2021/03/31 17:40:33;;;;;;;95.57;59.97;;;;;;;;;;10025535;29;20087;-63
2021/03/31 17:45:36;;;;;;;123.03;80.93;;;;;;;;;;10026140;29;20107;-64
2021/03/31 17:50:38;;;;;;;94.85;65.28;;;;;;;;;;10005764;29;20075;-62
2021/03/31 17:55:41;;;;;;;121.30;79.93;;;;;;;;;;10012386;29;20541;-63
2021/03/31 18:00:44;;;;;;;87.78;51.20;;;;;;;;;;10005919;29;20082;-62
2021/03/31 18:05:46;;;;;;;88.05;52.08;;;;;;;;;;10004648;29;20087;-64
2021/03/31 18:10:48;;;;;;;82.55;50.17;;;;;;;;;;10004016;29;20079;-63
2021/03/31 18:15:52;;;;;;;62.03;43.20;;;;;;;;;;10007743;29;20075;-64
2021/03/31 18:20:54;;;;;;;55.45;39.15;;;;;;;;;;10026502;29;20102;-63
2021/03/31 18:25:51;;;;;;;86.00;54.90;;;;;;;;;;10022444;29;20359;-63
2021/03/31 18:30:54;;;;;;;77.57;54.03;;;;;;;;;;10013599;29;20079;-63
2021/03/31 18:35:57;;;;;;;61.13;45.35;;;;;;;;;;10015753;29;20087;-64
2021/03/31 18:41:01;;;;;;;55.10;41.47;;;;;;;;;;10023437;29;20079;-64
2021/03/31 18:46:04;;;;;;;50.40;40.07;;;;;;;;;;10002628;29;20051;-62
2021/03/31 18:51:06;;;;;;;45.08;34.70;;;;;;;;;;10002726;29;20071;-64
2021/03/31 18:56:08;;;;;;;37.75;29.95;;;;;;;;;;10002530;29;20532;-63
2021/03/31 19:01:16;;;;;;;36.17;28.90;;;;;;;;;;10001843;29;20487;-64
2021/03/31 19:06:18;;;;;;;42.75;28.25;;;;;;;;;;10002224;29;20052;-62
2021/03/31 19:11:20;;;;;;;35.90;27.80;;;;;;;;;;10018080;29;20469;-63
2021/03/31 19:16:23;;;;;;;30.50;24.00;;;;;;;;;;10012441;29;20083;-63
2021/03/31 19:21:28;;;;;;;23.45;19.33;;;;;;;;;;10012959;29;20078;-64
2021/03/31 19:26:30;;;;;;;31.63;26.08;;;;;;;;;;10017318;29;20094;-62
2021/03/31 19:31:33;;;;;;;38.63;28.52;;;;;;;;;;10019799;29;20484;-63
2021/03/31 19:36:35;;;;;;;37.30;30.92;;;;;;;;;;10016520;29;20087;-63
2021/03/31 19:41:38;;;;;;;42.97;32.70;;;;;;;;;;10019708;29;20087;-62
2021/03/31 19:46:41;;;;;;;54.38;39.25;;;;;;;;;;10014543;29;20082;-61
2021/03/31 19:51:43;;;;;;;63.67;42.72;;;;;;;;;;10004680;29;20091;-62
2021/03/31 19:56:45;;;;;;;56.55;42.35;;;;;;;;;;10009944;29;20099;-62
2021/03/31 20:01:48;;;;;;;51.25;37.33;;;;;;;;;;10017892;29;20490;-61
2021/03/31 20:06:50;;;;;;;52.67;39.38;;;;;;;;;;10016406;29;20095;-63
2021/03/31 20:11:53;;;;;;;46.97;36.65;;;;;;;;;;10016496;29;20098;-63
2021/03/31 20:16:56;;;;;;;48.33;33.15;;;;;;;;;;10012964;29;20067;-63
2021/03/31 20:21:58;;;;;;;41.25;28.20;;;;;;;;;;10016067;29;20091;-63
2021/03/31 20:27:00;;;;;;;29.27;24.30;;;;;;;;;;10011139;29;20495;-63
2021/03/31 20:32:06;;;;;;;34.45;22.08;;;;;;;;;;10008396;29;20052;-64
2021/03/31 20:37:08;;;;;;;24.42;20.67;;;;;;;;;;9999215;29;20086;-63
2021/03/31 20:42:16;;;;;;;28.23;20.70;;;;;;;;;;10001563;29;20505;-64
2021/03/31 20:47:19;;;;;;;24.98;18.92;;;;;;;;;;9999602;29;20146;-63
2021/03/31 20:52:21;;;;;;;15.32;12.45;;;;;;;;;;10004874;29;20541;-63
2021/03/31 20:57:24;;;;;;;15.38;12.55;;;;;;;;;;9998933;29;20075;-62
2021/03/31 21:02:29;;;;;;;17.88;14.00;;;;;;;;;;9998938;29;20087;-64
2021/03/31 21:07:31;;;;;;;;;;;;;;;;;;10007799;29;20059;-64
2021/03/31 21:12:33;;;;;;;16.75;14.93;;;;;;;;;;10021076;29;19923;-62
2021/03/31 21:17:36;;;;;;;21.20;15.65;;;;;;;;;;10006509;29;20078;-63
2021/03/31 21:22:38;;;;;;;17.90;14.57;;;;;;;;;;10006402;29;20584;-63
2021/03/31 21:27:41;;;;;;;23.83;17.05;;;;;;;;;;10005483;29;20095;-64
2021/03/31 21:32:44;;;;;;;27.83;21.05;;;;;;;;;;10004164;29;20059;-63
2021/03/31 21:37:46;;;;;;;25.52;21.40;;;;;;;;;;10030065;29;20087;-63
2021/03/31 21:42:49;;;;;;;29.73;22.63;;;;;;;;;;10005599;29;20075;-64
2021/03/31 21:47:52;;;;;;;33.13;24.30;;;;;;;;;;10013921;29;20067;-63
2021/03/31 21:52:49;;;;;;;31.25;25.55;;;;;;;;;;10015760;29;20087;-63
2021/03/31 21:57:46;;;;;;;38.13;26.85;;;;;;;;;;10014325;29;20548;-64
2021/03/31 22:02:44;;;;;;;29.52;22.50;;;;;;;;;;10004218;29;20076;-65
2021/03/31 22:07:43;;;;;;;32.20;25.00;;;;;;;;;;10015654;29;20079;-63
2021/03/31 22:12:40;;;;;;;19.60;15.98;;;;;;;;;;10013339;29;20071;-62
2021/03/31 22:17:38;;;;;;;23.73;16.45;;;;;;;;;;10023693;29;20587;-63
2021/03/31 22:22:35;;;;;;;20.58;17.30;;;;;;;;;;10042504;29;20079;-62
2021/03/31 22:27:34;;;;;;;19.80;17.63;;;;;;;;;;10014336;29;20493;-61
2021/03/31 22:32:32;;;;;;;22.35;18.23;;;;;;;;;;10003833;29;20056;-63
2021/03/31 22:37:29;;;;;;;21.45;18.70;;;;;;;;;;10002890;29;20084;-63
2021/03/31 22:42:26;;;;;;;23.88;19.42;;;;;;;;;;10002582;29;20143;-63
2021/03/31 22:47:25;;;;;;;24.75;17.90;;;;;;;;;;10003186;29;20417;-63
2021/03/31 22:52:22;;;;;;;25.13;19.52;;;;;;;;;;10001588;29;20080;-64
2021/03/31 22:57:20;;;;;;;25.80;19.02;;;;;;;;;;10002839;29;20072;-63
2021/03/31 23:02:17;;;;;;;23.23;18.90;;;;;;;;;;10002633;29;20040;-62
2021/03/31 23:07:15;;;;;;;20.23;17.50;;;;;;;;;;10001804;29;20091;-62
2021/03/31 23:12:13;;;;;;;28.17;19.08;;;;;;;;;;10001851;29;20056;-63
2021/03/31 23:17:21;;;;;;;21.08;18.23;;;;;;;;;;10001510;29;20080;-63
2021/03/31 23:22:19;;;;;;;20.73;18.33;;;;;;;;;;10009783;29;20083;-64
2021/03/31 23:27:16;;;;;;;20.15;17.58;;;;;;;;;;10017416;29;20095;-64
2021/03/31 23:32:14;;;;;;;23.40;18.88;;;;;;;;;;10001082;29;20103;-63
2021/03/31 23:37:11;;;;;;;26.52;20.92;;;;;;;;;;10025523;29;20071;-63
2021/03/31 23:42:10;;;;;;;24.85;20.02;;;;;;;;;;10039994;29;20071;-64
2021/03/31 23:47:07;;;;;;;28.35;21.17;;;;;;;;;;10040105;29;20087;-63
2021/03/31 23:52:05;;;;;;;26.27;20.50;;;;;;;;;;10023418;29;20072;-62
2021/03/31 23:57:02;;;;;;;28.38;20.15;;;;;;;;;;10000567;29;20498;-63
